AZQ YBAF-YBAF
Flight info
| Callsign | AZQ |
|---|---|
| Flight time | 0h 3m |
| Altitude | 3000 |
| Route | CCT |
| Aircraft | C172/L-SDFGRY/C |
Departure
| Time | 2026-04-29 07:37 |
|---|---|
| Airport | Brisbane Archerfield Airport (YBAF) |
Arrival
| Time | 2026-04-29 07:40 |
|---|---|
| Airport | Brisbane Archerfield Airport (YBAF) |
| Time | Latitude | Longitude | Altitude | Speed | Heading |
|---|---|---|---|---|---|
| 2026-04-29 07:32 | -27.57059 | 153.00120 | 39 ft | 12 kts | 289° |
| 2026-04-29 07:32 | -27.57031 | 153.00034 | 38 ft | 11 kts | 285° |
| 2026-04-29 07:32 | -27.57011 | 152.99952 | 38 ft | 10 kts | 285° |
| 2026-04-29 07:33 | -27.56994 | 152.99885 | 39 ft | 7 kts | 287° |
| 2026-04-29 07:33 | -27.56976 | 152.99853 | 39 ft | 4 kts | 348° |
| 2026-04-29 07:33 | -27.56964 | 152.99863 | 39 ft | 2 kts | 138° |
| 2026-04-29 07:33 | -27.56969 | 152.99863 | 38 ft | 0 kts | 206° |
| 2026-04-29 07:35 | -27.56981 | 152.99858 | 39 ft | 7 kts | 203° |
| 2026-04-29 07:35 | -27.57016 | 152.99843 | 40 ft | 3 kts | 187° |
| 2026-04-29 07:35 | -27.57034 | 152.99840 | 40 ft | 1 kts | 197° |
| 2026-04-29 07:35 | -27.57061 | 152.99833 | 40 ft | 8 kts | 159° |
| 2026-04-29 07:36 | -27.57103 | 152.99956 | 40 ft | 38 kts | 108° |
| 2026-04-29 07:36 | -27.57217 | 153.00387 | 88 ft | 70 kts | 109° |
| 2026-04-29 07:36 | -27.57370 | 153.00941 | 271 ft | 78 kts | 112° |
| 2026-04-29 07:36 | -27.57562 | 153.01478 | 558 ft | 76 kts | 111° |
| 2026-04-29 07:37 | -27.57413 | 153.01962 | 932 ft | 79 kts | 46° |
| 2026-04-29 07:37 | -27.56785 | 153.02159 | 915 ft | 103 kts | 356° |
| 2026-04-29 07:37 | -27.56280 | 153.01648 | 971 ft | 107 kts | 285° |
| 2026-04-29 07:37 | -27.56014 | 153.00836 | 977 ft | 112 kts | 284° |
| 2026-04-29 07:38 | -27.55762 | 153.00015 | 994 ft | 114 kts | 286° |
| 2026-04-29 07:38 | -27.55471 | 152.99217 | 998 ft | 107 kts | 289° |
| 2026-04-29 07:38 | -27.55238 | 152.98432 | 898 ft | 107 kts | 270° |
| 2026-04-29 07:38 | -27.55422 | 152.97682 | 865 ft | 95 kts | 224° |
| 2026-04-29 07:39 | -27.55965 | 152.97374 | 770 ft | 82 kts | 178° |
| 2026-04-29 07:39 | -27.56435 | 152.97505 | 690 ft | 74 kts | 135° |
| 2026-04-29 07:39 | -27.56591 | 152.98078 | 567 ft | 79 kts | 109° |
| 2026-04-29 07:39 | -27.56729 | 152.98634 | 455 ft | 73 kts | 111° |
| 2026-04-29 07:40 | -27.56872 | 152.99171 | 270 ft | 70 kts | 111° |
| 2026-04-29 07:40 | -27.57017 | 152.99675 | 79 ft | 65 kts | 112° |
| 2026-04-29 07:40 | -27.57136 | 153.00077 | 40 ft | 41 kts | 107° |
| 2026-04-29 07:40 | -27.57253 | 153.00504 | 53 ft | 74 kts | 110° |
| 2026-04-29 07:41 | -27.57429 | 153.01080 | 279 ft | 76 kts | 110° |
| 2026-04-29 07:41 | -27.57608 | 153.01669 | 569 ft | 81 kts | 109° |
| 2026-04-29 07:41 | -27.57577 | 153.02242 | 916 ft | 79 kts | 75° |
| 2026-04-29 07:41 | -27.57148 | 153.02770 | 993 ft | 102 kts | 34° |
| 2026-04-29 07:42 | -27.56387 | 153.02935 | 970 ft | 120 kts | 359° |
| 2026-04-29 07:42 | -27.55644 | 153.02511 | 909 ft | 123 kts | 309° |
| 2026-04-29 07:42 | -27.55313 | 153.01673 | 899 ft | 115 kts | 290° |
| 2026-04-29 07:42 | -27.55103 | 153.00859 | 927 ft | 110 kts | 282° |
| 2026-04-29 07:43 | -27.54935 | 153.00008 | 894 ft | 110 kts | 273° |
| 2026-04-29 07:43 | -27.54821 | 152.99175 | 920 ft | 103 kts | 277° |
| 2026-04-29 07:43 | -27.54835 | 152.98415 | 961 ft | 90 kts | 239° |
| 2026-04-29 07:43 | -27.55161 | 152.97802 | 972 ft | 91 kts | 219° |
| 2026-04-29 07:44 | -27.55678 | 152.97338 | 829 ft | 102 kts | 202° |
| 2026-04-29 07:44 | -27.56280 | 152.97244 | 817 ft | 81 kts | 145° |
| 2026-04-29 07:44 | -27.56503 | 152.97844 | 666 ft | 87 kts | 111° |
| 2026-04-29 07:44 | -27.56676 | 152.98450 | 536 ft | 77 kts | 112° |
| 2026-04-29 07:45 | -27.56833 | 152.99010 | 327 ft | 75 kts | 111° |
| 2026-04-29 07:45 | -27.56987 | 152.99562 | 130 ft | 71 kts | 111° |
| 2026-04-29 07:45 | -27.57116 | 153.00014 | 40 ft | 45 kts | 109° |
| 2026-04-29 07:45 | -27.57227 | 153.00397 | 40 ft | 69 kts | 105° |
| 2026-04-29 07:46 | -27.57395 | 153.00959 | 220 ft | 76 kts | 112° |
| 2026-04-29 07:46 | -27.57554 | 153.01485 | 610 ft | 65 kts | 101° |
| 2026-04-29 07:46 | -27.57432 | 153.01958 | 858 ft | 68 kts | 65° |
| 2026-04-29 07:46 | -27.57004 | 153.02317 | 945 ft | 91 kts | 28° |
| 2026-04-29 07:47 | -27.56289 | 153.02373 | 934 ft | 118 kts | 344° |
| 2026-04-29 07:47 | -27.55715 | 153.01758 | 932 ft | 116 kts | 299° |
| 2026-04-29 07:47 | -27.55406 | 153.00918 | 893 ft | 117 kts | 282° |
| 2026-04-29 07:47 | -27.55165 | 153.00050 | 900 ft | 116 kts | 286° |
| 2026-04-29 07:48 | -27.54888 | 152.99198 | 890 ft | 116 kts | 291° |
| 2026-04-29 07:48 | -27.54881 | 152.98300 | 858 ft | 122 kts | 249° |
| 2026-04-29 07:48 | -27.55271 | 152.97522 | 985 ft | 112 kts | 228° |
| 2026-04-29 07:48 | -27.55919 | 152.97179 | 875 ft | 109 kts | 180° |
| 2026-04-29 07:49 | -27.56490 | 152.97399 | 767 ft | 73 kts | 115° |
| 2026-04-29 07:49 | -27.56563 | 152.97904 | 611 ft | 56 kts | 113° |
| 2026-04-29 07:49 | -27.56673 | 152.98303 | 505 ft | 56 kts | 110° |
| 2026-04-29 07:49 | -27.56769 | 152.98795 | 481 ft | 72 kts | 111° |
| 2026-04-29 07:50 | -27.56934 | 152.99317 | 292 ft | 66 kts | 106° |
| 2026-04-29 07:50 | -27.57051 | 152.99780 | 71 ft | 59 kts | 111° |
| 2026-04-29 07:50 | -27.57144 | 153.00103 | 39 ft | 25 kts | 114° |
| 2026-04-29 07:50 | -27.57205 | 153.00317 | 38 ft | 38 kts | 107° |
| 2026-04-29 07:51 | -27.57195 | 153.00464 | 41 ft | 11 kts | 4° |
| 2026-04-29 07:51 | -27.57189 | 153.00466 | 42 ft | 0 kts | 15° |
| 2026-04-29 07:52 | -27.57154 | 153.00445 | 43 ft | 17 kts | 289° |
| 2026-04-29 07:53 | -27.57094 | 153.00230 | 38 ft | 34 kts | 286° |
| 2026-04-29 07:53 | -27.57019 | 152.99991 | 37 ft | 31 kts | 288° |
| 2026-04-29 07:53 | -27.56946 | 152.99832 | 39 ft | 9 kts | 296° |
| 2026-04-29 07:53 | -27.56951 | 152.99822 | 40 ft | 0 kts | 189° |
| 2026-04-29 08:04 | -27.56959 | 152.99822 | 39 ft | 6 kts | 173° |
| 2026-04-29 08:04 | -27.57010 | 152.99838 | 39 ft | 7 kts | 170° |
| 2026-04-29 08:04 | -27.57050 | 152.99830 | 39 ft | 5 kts | 194° |
| 2026-04-29 08:05 | -27.57097 | 152.99941 | 39 ft | 40 kts | 107° |
| 2026-04-29 08:05 | -27.57201 | 153.00306 | 37 ft | 36 kts | 110° |